sensor_id;sensor_type;location;lat;lon;timestamp;temperature;humidity
20700;DHT22;10511;51.232;9.420;2023-04-01T00:00:24;9.10;99.90
20700;DHT22;10511;51.232;9.420;2023-04-01T00:02:51;9.10;99.90
20700;DHT22;10511;51.232;9.420;2023-04-01T00:05:18;9.10;99.90
20700;DHT22;10511;51.232;9.420;2023-04-01T00:07:45;9.10;99.90
20700;DHT22;10511;51.232;9.420;2023-04-01T00:10:13;9.00;99.90
20700;DHT22;10511;51.232;9.420;2023-04-01T00:12:41;9.00;99.90
20700;DHT22;10511;51.232;9.420;2023-04-01T00:15:11;9.00;99.90
20700;DHT22;10511;51.232;9.420;2023-04-01T00:17:38;9.00;99.90
20700;DHT22;10511;51.232;9.420;2023-04-01T00:20:10;9.00;99.90
20700;DHT22;10511;51.232;9.420;2023-04-01T00:22:37;8.90;99.90
20700;DHT22;10511;51.232;9.420;2023-04-01T00:25:04;9.00;99.90
20700;DHT22;10511;51.232;9.420;2023-04-01T00:27:31;8.90;99.90
20700;DHT22;10511;51.232;9.420;2023-04-01T00:29:58;8.90;99.90
20700;DHT22;10511;51.232;9.420;2023-04-01T00:32:27;8.90;99.90
20700;DHT22;10511;51.232;9.420;2023-04-01T00:34:54;8.90;99.90
20700;DHT22;10511;51.232;9.420;2023-04-01T00:37:21;8.90;99.90
20700;DHT22;10511;51.232;9.420;2023-04-01T00:39:48;8.90;99.90
20700;DHT22;10511;51.232;9.420;2023-04-01T00:42:15;8.90;99.90
20700;DHT22;10511;51.232;9.420;2023-04-01T00:44:42;8.90;99.90
20700;DHT22;10511;51.232;9.420;2023-04-01T00:47:09;8.80;99.90
20700;DHT22;10511;51.232;9.420;2023-04-01T00:49:39;8.80;99.90
20700;DHT22;10511;51.232;9.420;2023-04-01T00:52:08;8.80;99.90
20700;DHT22;10511;51.232;9.420;2023-04-01T00:54:37;8.80;99.90
20700;DHT22;10511;51.232;9.420;2023-04-01T00:57:11;8.80;99.90
20700;DHT22;10511;51.232;9.420;2023-04-01T00:59:41;8.80;99.90
20700;DHT22;10511;51.232;9.420;2023-04-01T01:02:12;8.80;99.90
20700;DHT22;10511;51.232;9.420;2023-04-01T01:04:41;8.80;99.90
20700;DHT22;10511;51.232;9.420;2023-04-01T01:07:16;8.80;99.90
20700;DHT22;10511;51.232;9.420;2023-04-01T01:09:53;8.80;99.90
20700;DHT22;10511;51.232;9.420;2023-04-01T01:12:26;8.80;99.90
20700;DHT22;10511;51.232;9.420;2023-04-01T01:15:02;8.80;99.90
20700;DHT22;10511;51.232;9.420;2023-04-01T01:17:40;8.80;99.90
20700;DHT22;10511;51.232;9.420;2023-04-01T01:26:52;8.70;99.90
20700;DHT22;10511;51.232;9.420;2023-04-01T01:29:48;8.70;99.90
20700;DHT22;10511;51.232;9.420;2023-04-01T01:32:30;8.70;99.90
20700;DHT22;10511;51.232;9.420;2023-04-01T01:35:14;8.70;99.90
20700;DHT22;10511;51.232;9.420;2023-04-01T01:37:44;8.70;99.90
20700;DHT22;10511;51.232;9.420;2023-04-01T01:40:13;8.70;99.90
20700;DHT22;10511;51.232;9.420;2023-04-01T01:42:44;8.70;99.90
20700;DHT22;10511;51.232;9.420;2023-04-01T01:45:14;8.70;99.90
20700;DHT22;10511;51.232;9.420;2023-04-01T01:47:44;8.70;99.90
20700;DHT22;10511;51.232;9.420;2023-04-01T01:50:14;8.70;99.90
20700;DHT22;10511;51.232;9.420;2023-04-01T01:52:42;8.70;99.90
20700;DHT22;10511;51.232;9.420;2023-04-01T01:55:26;8.70;99.90
20700;DHT22;10511;51.232;9.420;2023-04-01T01:57:55;8.60;99.90
20700;DHT22;10511;51.232;9.420;2023-04-01T02:00:22;8.60;99.90
20700;DHT22;10511;51.232;9.420;2023-04-01T02:02:50;8.60;99.90
20700;DHT22;10511;51.232;9.420;2023-04-01T02:05:20;8.60;99.90
20700;DHT22;10511;51.232;9.420;2023-04-01T02:07:51;8.60;99.90
20700;DHT22;10511;51.232;9.420;2023-04-01T02:10:25;8.60;99.90
20700;DHT22;10511;51.232;9.420;2023-04-01T02:12:54;8.60;99.90
20700;DHT22;10511;51.232;9.420;2023-04-01T02:15:25;8.60;99.90
20700;DHT22;10511;51.232;9.420;2023-04-01T02:17:56;8.60;99.90
20700;DHT22;10511;51.232;9.420;2023-04-01T02:20:25;8.60;99.90
20700;DHT22;10511;51.232;9.420;2023-04-01T02:22:57;8.60;99.90
20700;DHT22;10511;51.232;9.420;2023-04-01T02:25:27;8.60;99.90
20700;DHT22;10511;51.232;9.420;2023-04-01T02:27:55;8.60;99.90
20700;DHT22;10511;51.232;9.420;2023-04-01T02:30:23;8.60;99.90
20700;DHT22;10511;51.232;9.420;2023-04-01T02:32:51;8.60;99.90
20700;DHT22;10511;51.232;9.420;2023-04-01T02:35:18;8.60;99.90
20700;DHT22;10511;51.232;9.420;2023-04-01T02:37:49;8.60;99.90
20700;DHT22;10511;51.232;9.420;2023-04-01T02:40:17;8.60;99.90
20700;DHT22;10511;51.232;9.420;2023-04-01T02:42:44;8.60;99.90
20700;DHT22;10511;51.232;9.420;2023-04-01T02:45:12;8.60;99.90
20700;DHT22;10511;51.232;9.420;2023-04-01T02:47:40;8.60;99.90
20700;DHT22;10511;51.232;9.420;2023-04-01T02:50:08;8.60;99.90
20700;DHT22;10511;51.232;9.420;2023-04-01T02:52:35;8.50;99.90
20700;DHT22;10511;51.232;9.420;2023-04-01T02:55:05;8.60;99.90
20700;DHT22;10511;51.232;9.420;2023-04-01T02:57:32;8.60;99.90
20700;DHT22;10511;51.232;9.420;2023-04-01T02:59:59;8.50;99.90
20700;DHT22;10511;51.232;9.420;2023-04-01T03:02:26;8.60;99.90
20700;DHT22;10511;51.232;9.420;2023-04-01T03:04:53;8.50;99.90
20700;DHT22;10511;51.232;9.420;2023-04-01T03:07:20;8.60;99.90
20700;DHT22;10511;51.232;9.420;2023-04-01T03:09:46;8.60;99.90
20700;DHT22;10511;51.232;9.420;2023-04-01T03:12:15;8.60;99.90
20700;DHT22;10511;51.232;9.420;2023-04-01T03:14:42;8.60;99.90
20700;DHT22;10511;51.232;9.420;2023-04-01T03:17:08;8.60;99.90
20700;DHT22;10511;51.232;9.420;2023-04-01T03:19:35;8.60;99.90
20700;DHT22;10511;51.232;9.420;2023-04-01T03:22:02;8.60;99.90
20700;DHT22;10511;51.232;9.420;2023-04-01T03:24:29;8.60;99.90
20700;DHT22;10511;51.232;9.420;2023-04-01T03:26:56;8.60;99.90
20700;DHT22;10511;51.232;9.420;2023-04-01T03:29:24;8.60;99.90
20700;DHT22;10511;51.232;9.420;2023-04-01T03:31:51;8.60;99.90
20700;DHT22;10511;51.232;9.420;2023-04-01T03:34:18;8.60;99.90
20700;DHT22;10511;51.232;9.420;2023-04-01T03:36:45;8.60;99.90
20700;DHT22;10511;51.232;9.420;2023-04-01T03:39:11;8.60;99.90
20700;DHT22;10511;51.232;9.420;2023-04-01T03:41:38;8.60;99.90
20700;DHT22;10511;51.232;9.420;2023-04-01T03:44:05;8.60;99.90
20700;DHT22;10511;51.232;9.420;2023-04-01T03:46:34;8.60;99.90
20700;DHT22;10511;51.232;9.420;2023-04-01T03:49:01;8.60;99.90
20700;DHT22;10511;51.232;9.420;2023-04-01T03:51:28;8.60;99.90
20700;DHT22;10511;51.232;9.420;2023-04-01T03:53:54;8.60;99.90
20700;DHT22;10511;51.232;9.420;2023-04-01T03:56:21;8.60;99.90
20700;DHT22;10511;51.232;9.420;2023-04-01T03:58:48;8.50;99.90
20700;DHT22;10511;51.232;9.420;2023-04-01T04:01:17;8.50;99.90
20700;DHT22;10511;51.232;9.420;2023-04-01T04:03:47;8.50;99.90
20700;DHT22;10511;51.232;9.420;2023-04-01T04:06:15;8.50;99.90
20700;DHT22;10511;51.232;9.420;2023-04-01T04:08:42;8.60;99.90
20700;DHT22;10511;51.232;9.420;2023-04-01T04:11:09;8.60;99.90
20700;DHT22;10511;51.232;9.420;2023-04-01T04:13:36;8.50;99.90
20700;DHT22;10511;51.232;9.420;2023-04-01T04:16:04;8.50;99.90
20700;DHT22;10511;51.232;9.420;2023-04-01T04:18:31;8.50;99.90
20700;DHT22;10511;51.232;9.420;2023-04-01T04:20:59;8.50;99.90
20700;DHT22;10511;51.232;9.420;2023-04-01T04:23:26;8.50;99.90
20700;DHT22;10511;51.232;9.420;2023-04-01T04:25:55;8.50;99.90
20700;DHT22;10511;51.232;9.420;2023-04-01T04:28:22;8.50;99.90
20700;DHT22;10511;51.232;9.420;2023-04-01T04:30:49;8.50;99.90
20700;DHT22;10511;51.232;9.420;2023-04-01T04:33:16;8.50;99.90
20700;DHT22;10511;51.232;9.420;2023-04-01T04:35:43;8.50;99.90
20700;DHT22;10511;51.232;9.420;2023-04-01T04:38:11;8.50;99.90
20700;DHT22;10511;51.232;9.420;2023-04-01T04:40:38;8.40;99.90
20700;DHT22;10511;51.232;9.420;2023-04-01T04:43:06;8.40;99.90
20700;DHT22;10511;51.232;9.420;2023-04-01T04:45:32;8.40;99.90
20700;DHT22;10511;51.232;9.420;2023-04-01T04:47:59;8.40;99.90
20700;DHT22;10511;51.232;9.420;2023-04-01T04:50:26;8.40;99.90
20700;DHT22;10511;51.232;9.420;2023-04-01T04:52:53;8.40;99.90
20700;DHT22;10511;51.232;9.420;2023-04-01T04:55:21;8.40;99.90
20700;DHT22;10511;51.232;9.420;2023-04-01T04:57:48;8.40;99.90
20700;DHT22;10511;51.232;9.420;2023-04-01T05:00:16;8.40;99.90
20700;DHT22;10511;51.232;9.420;2023-04-01T05:02:43;8.40;99.90
20700;DHT22;10511;51.232;9.420;2023-04-01T05:05:10;8.40;99.90
20700;DHT22;10511;51.232;9.420;2023-04-01T05:07:37;8.40;99.90
20700;DHT22;10511;51.232;9.420;2023-04-01T05:10:04;8.30;99.90
20700;DHT22;10511;51.232;9.420;2023-04-01T05:12:33;8.30;99.90
20700;DHT22;10511;51.232;9.420;2023-04-01T05:15:03;8.40;99.90
20700;DHT22;10511;51.232;9.420;2023-04-01T05:17:30;8.30;99.90
20700;DHT22;10511;51.232;9.420;2023-04-01T05:19:57;8.30;99.90
20700;DHT22;10511;51.232;9.420;2023-04-01T05:22:24;8.30;99.90
20700;DHT22;10511;51.232;9.420;2023-04-01T05:24:51;8.30;99.90
20700;DHT22;10511;51.232;9.420;2023-04-01T05:27:17;8.30;99.90
20700;DHT22;10511;51.232;9.420;2023-04-01T05:29:46;8.30;99.90
20700;DHT22;10511;51.232;9.420;2023-04-01T05:32:13;8.30;99.90
20700;DHT22;10511;51.232;9.420;2023-04-01T05:34:40;8.30;99.90
20700;DHT22;10511;51.232;9.420;2023-04-01T05:37:07;8.20;99.90
20700;DHT22;10511;51.232;9.420;2023-04-01T05:39:38;8.30;99.90
20700;DHT22;10511;51.232;9.420;2023-04-01T05:42:06;8.30;99.90
20700;DHT22;10511;51.232;9.420;2023-04-01T05:44:35;8.20;99.90
20700;DHT22;10511;51.232;9.420;2023-04-01T05:47:04;8.30;99.90
20700;DHT22;10511;51.232;9.420;2023-04-01T05:49:32;8.20;99.90
20700;DHT22;10511;51.232;9.420;2023-04-01T05:51:59;8.30;99.90
20700;DHT22;10511;51.232;9.420;2023-04-01T05:54:26;8.20;99.90
20700;DHT22;10511;51.232;9.420;2023-04-01T05:56:53;8.20;99.90
20700;DHT22;10511;51.232;9.420;2023-04-01T05:59:20;8.20;99.90
20700;DHT22;10511;51.232;9.420;2023-04-01T06:01:47;8.20;99.90
20700;DHT22;10511;51.232;9.420;2023-04-01T06:04:16;8.20;99.90
20700;DHT22;10511;51.232;9.420;2023-04-01T06:06:44;8.20;99.90
20700;DHT22;10511;51.232;9.420;2023-04-01T06:09:14;8.30;99.90
20700;DHT22;10511;51.232;9.420;2023-04-01T06:11:51;8.30;99.90
20700;DHT22;10511;51.232;9.420;2023-04-01T06:14:30;8.20;99.90
20700;DHT22;10511;51.232;9.420;2023-04-01T06:17:12;8.20;99.90
20700;DHT22;10511;51.232;9.420;2023-04-01T06:19:47;8.20;99.90
20700;DHT22;10511;51.232;9.420;2023-04-01T06:25:54;8.20;99.90
20700;DHT22;10511;51.232;9.420;2023-04-01T06:31:53;8.30;99.90
20700;DHT22;10511;51.232;9.420;2023-04-01T06:34:36;8.30;99.90
20700;DHT22;10511;51.232;9.420;2023-04-01T06:37:16;8.20;99.90
20700;DHT22;10511;51.232;9.420;2023-04-01T06:39:58;8.20;99.90
20700;DHT22;10511;51.232;9.420;2023-04-01T06:42:52;8.20;99.90
20700;DHT22;10511;51.232;9.420;2023-04-01T06:45:32;8.30;99.90
20700;DHT22;10511;51.232;9.420;2023-04-01T06:48:11;8.30;99.90
20700;DHT22;10511;51.232;9.420;2023-04-01T06:50:51;8.30;99.90
20700;DHT22;10511;51.232;9.420;2023-04-01T06:53:32;8.30;99.90
20700;DHT22;10511;51.232;9.420;2023-04-01T06:56:05;8.30;99.90
20700;DHT22;10511;51.232;9.420;2023-04-01T06:58:37;8.40;99.90
20700;DHT22;10511;51.232;9.420;2023-04-01T07:01:08;8.40;99.90
20700;DHT22;10511;51.232;9.420;2023-04-01T07:03:40;8.50;99.90
20700;DHT22;10511;51.232;9.420;2023-04-01T07:06:11;8.40;99.90
20700;DHT22;10511;51.232;9.420;2023-04-01T07:08:43;8.40;99.90
20700;DHT22;10511;51.232;9.420;2023-04-01T07:11:18;8.50;99.90
20700;DHT22;10511;51.232;9.420;2023-04-01T07:13:52;8.50;99.90
20700;DHT22;10511;51.232;9.420;2023-04-01T07:16:23;8.50;99.90
20700;DHT22;10511;51.232;9.420;2023-04-01T07:18:54;8.50;99.90
20700;DHT22;10511;51.232;9.420;2023-04-01T07:21:27;8.50;99.90
20700;DHT22;10511;51.232;9.420;2023-04-01T07:24:03;8.50;99.90
20700;DHT22;10511;51.232;9.420;2023-04-01T07:26:31;8.50;99.90
20700;DHT22;10511;51.232;9.420;2023-04-01T07:28:58;8.50;99.90
20700;DHT22;10511;51.232;9.420;2023-04-01T07:31:45;8.60;99.90
20700;DHT22;10511;51.232;9.420;2023-04-01T07:34:17;8.60;99.90
20700;DHT22;10511;51.232;9.420;2023-04-01T07:36:49;8.60;99.90
20700;DHT22;10511;51.232;9.420;2023-04-01T07:39:30;8.60;99.90
20700;DHT22;10511;51.232;9.420;2023-04-01T07:42:05;8.60;99.90
20700;DHT22;10511;51.232;9.420;2023-04-01T07:44:41;8.60;99.90
20700;DHT22;10511;51.232;9.420;2023-04-01T07:47:20;8.60;99.90
20700;DHT22;10511;51.232;9.420;2023-04-01T07:49:57;8.60;99.90
20700;DHT22;10511;51.232;9.420;2023-04-01T07:52:33;8.70;99.90
20700;DHT22;10511;51.232;9.420;2023-04-01T07:55:06;8.60;99.90
20700;DHT22;10511;51.232;9.420;2023-04-01T07:57:39;8.70;99.90
20700;DHT22;10511;51.232;9.420;2023-04-01T08:00:12;8.70;99.90
20700;DHT22;10511;51.232;9.420;2023-04-01T08:02:57;8.70;99.90
20700;DHT22;10511;51.232;9.420;2023-04-01T08:05:29;8.80;99.90
20700;DHT22;10511;51.232;9.420;2023-04-01T08:08:04;8.80;99.90
20700;DHT22;10511;51.232;9.420;2023-04-01T08:10:44;8.80;99.90
20700;DHT22;10511;51.232;9.420;2023-04-01T08:13:17;8.90;99.90
20700;DHT22;10511;51.232;9.420;2023-04-01T08:15:53;8.90;99.90
20700;DHT22;10511;51.232;9.420;2023-04-01T08:18:30;8.90;99.90
20700;DHT22;10511;51.232;9.420;2023-04-01T08:21:00;8.90;99.90
20700;DHT22;10511;51.232;9.420;2023-04-01T08:23:30;9.00;99.90
20700;DHT22;10511;51.232;9.420;2023-04-01T08:26:02;9.00;99.90
20700;DHT22;10511;51.232;9.420;2023-04-01T08:28:34;9.00;99.90
20700;DHT22;10511;51.232;9.420;2023-04-01T08:31:05;9.00;99.90
20700;DHT22;10511;51.232;9.420;2023-04-01T08:33:33;9.10;99.90
20700;DHT22;10511;51.232;9.420;2023-04-01T08:36:03;9.10;99.90
20700;DHT22;10511;51.232;9.420;2023-04-01T08:38:36;9.10;99.90
20700;DHT22;10511;51.232;9.420;2023-04-01T08:41:20;9.10;99.90
20700;DHT22;10511;51.232;9.420;2023-04-01T08:44:07;9.20;99.90
20700;DHT22;10511;51.232;9.420;2023-04-01T08:46:57;9.20;99.90
20700;DHT22;10511;51.232;9.420;2023-04-01T08:49:50;9.20;99.90
20700;DHT22;10511;51.232;9.420;2023-04-01T08:52:42;9.30;99.90
20700;DHT22;10511;51.232;9.420;2023-04-01T08:55:37;9.30;99.90
20700;DHT22;10511;51.232;9.420;2023-04-01T09:01:21;9.40;99.90
20700;DHT22;10511;51.232;9.420;2023-04-01T09:04:06;9.40;99.90
20700;DHT22;10511;51.232;9.420;2023-04-01T09:06:51;9.40;99.90
20700;DHT22;10511;51.232;9.420;2023-04-01T09:09:40;9.40;99.90
20700;DHT22;10511;51.232;9.420;2023-04-01T09:12:35;9.40;99.90
20700;DHT22;10511;51.232;9.420;2023-04-01T09:18:20;9.50;99.90
20700;DHT22;10511;51.232;9.420;2023-04-01T09:21:12;9.60;99.90
20700;DHT22;10511;51.232;9.420;2023-04-01T09:23:54;9.60;99.90
20700;DHT22;10511;51.232;9.420;2023-04-01T09:26:43;9.70;99.90
20700;DHT22;10511;51.232;9.420;2023-04-01T09:29:24;9.70;99.90
20700;DHT22;10511;51.232;9.420;2023-04-01T09:32:12;9.70;99.90
20700;DHT22;10511;51.232;9.420;2023-04-01T09:34:53;9.70;99.90
20700;DHT22;10511;51.232;9.420;2023-04-01T09:37:35;9.70;99.90
20700;DHT22;10511;51.232;9.420;2023-04-01T09:40:15;9.70;99.90
20700;DHT22;10511;51.232;9.420;2023-04-01T09:42:49;9.70;99.90
20700;DHT22;10511;51.232;9.420;2023-04-01T09:45:32;9.70;99.90
20700;DHT22;10511;51.232;9.420;2023-04-01T09:48:15;9.80;99.90
20700;DHT22;10511;51.232;9.420;2023-04-01T09:50:52;9.80;99.90
20700;DHT22;10511;51.232;9.420;2023-04-01T09:53:34;9.90;99.90
20700;DHT22;10511;51.232;9.420;2023-04-01T09:59:21;9.90;99.90
20700;DHT22;10511;51.232;9.420;2023-04-01T10:02:19;9.90;99.90
20700;DHT22;10511;51.232;9.420;2023-04-01T10:05:15;9.90;99.90
20700;DHT22;10511;51.232;9.420;2023-04-01T10:11:17;10.00;99.90
20700;DHT22;10511;51.232;9.420;2023-04-01T10:17:22;9.90;99.90
20700;DHT22;10511;51.232;9.420;2023-04-01T10:23:13;9.80;99.90
20700;DHT22;10511;51.232;9.420;2023-04-01T10:26:07;9.80;99.90
20700;DHT22;10511;51.232;9.420;2023-04-01T10:29:00;9.80;99.90
20700;DHT22;10511;51.232;9.420;2023-04-01T10:34:47;9.80;99.90
20700;DHT22;10511;51.232;9.420;2023-04-01T10:37:38;9.80;99.90
20700;DHT22;10511;51.232;9.420;2023-04-01T10:40:29;9.80;99.90
20700;DHT22;10511;51.232;9.420;2023-04-01T10:43:32;9.90;99.90
20700;DHT22;10511;51.232;9.420;2023-04-01T10:49:30;10.10;99.90
20700;DHT22;10511;51.232;9.420;2023-04-01T10:55:28;10.20;99.90
20700;DHT22;10511;51.232;9.420;2023-04-01T10:58:26;10.20;99.90
20700;DHT22;10511;51.232;9.420;2023-04-01T11:07:22;10.30;99.90
20700;DHT22;10511;51.232;9.420;2023-04-01T11:10:34;10.30;99.90
20700;DHT22;10511;51.232;9.420;2023-04-01T11:22:51;10.70;99.90
20700;DHT22;10511;51.232;9.420;2023-04-01T11:25:45;10.80;99.90
20700;DHT22;10511;51.232;9.420;2023-04-01T11:28:42;10.80;99.90
20700;DHT22;10511;51.232;9.420;2023-04-01T11:31:25;10.80;99.90
20700;DHT22;10511;51.232;9.420;2023-04-01T11:34:02;10.70;99.90
20700;DHT22;10511;51.232;9.420;2023-04-01T11:36:42;10.70;99.90
20700;DHT22;10511;51.232;9.420;2023-04-01T11:39:17;10.60;99.90
20700;DHT22;10511;51.232;9.420;2023-04-01T11:41:58;10.50;99.90
20700;DHT22;10511;51.232;9.420;2023-04-01T11:44:29;10.50;99.90
20700;DHT22;10511;51.232;9.420;2023-04-01T11:47:10;10.50;99.90
20700;DHT22;10511;51.232;9.420;2023-04-01T11:49:51;10.60;99.90
20700;DHT22;10511;51.232;9.420;2023-04-01T11:52:38;10.70;99.90
20700;DHT22;10511;51.232;9.420;2023-04-01T11:55:28;10.70;99.90
20700;DHT22;10511;51.232;9.420;2023-04-01T11:58:19;10.70;99.90
20700;DHT22;10511;51.232;9.420;2023-04-01T12:04:06;10.60;99.90
20700;DHT22;10511;51.232;9.420;2023-04-01T12:06:43;10.60;99.90
20700;DHT22;10511;51.232;9.420;2023-04-01T12:09:21;10.60;99.90
20700;DHT22;10511;51.232;9.420;2023-04-01T12:12:02;10.60;99.90
20700;DHT22;10511;51.232;9.420;2023-04-01T12:14:39;10.60;99.90
20700;DHT22;10511;51.232;9.420;2023-04-01T12:17:21;10.60;99.90
20700;DHT22;10511;51.232;9.420;2023-04-01T12:19:57;10.60;99.90
20700;DHT22;10511;51.232;9.420;2023-04-01T12:22:44;10.60;99.90
20700;DHT22;10511;51.232;9.420;2023-04-01T12:28:22;10.60;99.90
20700;DHT22;10511;51.232;9.420;2023-04-01T12:31:12;10.60;99.90
20700;DHT22;10511;51.232;9.420;2023-04-01T12:33:55;10.70;99.90
20700;DHT22;10511;51.232;9.420;2023-04-01T12:36:40;10.60;99.90
20700;DHT22;10511;51.232;9.420;2023-04-01T12:39:29;10.60;99.90
20700;DHT22;10511;51.232;9.420;2023-04-01T12:42:06;10.50;99.90
20700;DHT22;10511;51.232;9.420;2023-04-01T12:44:51;10.50;99.90
20700;DHT22;10511;51.232;9.420;2023-04-01T12:47:44;10.60;99.90
20700;DHT22;10511;51.232;9.420;2023-04-01T12:53:22;10.60;99.90
20700;DHT22;10511;51.232;9.420;2023-04-01T12:55:54;10.60;99.90
20700;DHT22;10511;51.232;9.420;2023-04-01T12:58:56;10.50;99.90
20700;DHT22;10511;51.232;9.420;2023-04-01T13:01:43;10.60;99.90
20700;DHT22;10511;51.232;9.420;2023-04-01T13:04:37;10.70;99.90
20700;DHT22;10511;51.232;9.420;2023-04-01T13:07:32;10.70;99.90
20700;DHT22;10511;51.232;9.420;2023-04-01T13:10:09;10.70;99.90
20700;DHT22;10511;51.232;9.420;2023-04-01T13:12:54;10.60;99.90
20700;DHT22;10511;51.232;9.420;2023-04-01T13:15:30;10.70;99.90
20700;DHT22;10511;51.232;9.420;2023-04-01T13:18:10;10.70;99.90
20700;DHT22;10511;51.232;9.420;2023-04-01T13:20:51;10.70;99.90
20700;DHT22;10511;51.232;9.420;2023-04-01T13:23:29;10.70;99.90
20700;DHT22;10511;51.232;9.420;2023-04-01T13:26:06;10.60;99.90
20700;DHT22;10511;51.232;9.420;2023-04-01T13:28:42;10.60;99.90
20700;DHT22;10511;51.232;9.420;2023-04-01T13:31:25;10.60;99.90
20700;DHT22;10511;51.232;9.420;2023-04-01T13:34:05;10.50;99.90
20700;DHT22;10511;51.232;9.420;2023-04-01T13:36:41;10.50;99.90
20700;DHT22;10511;51.232;9.420;2023-04-01T13:42:16;10.40;99.90
20700;DHT22;10511;51.232;9.420;2023-04-01T13:44:47;10.40;99.90
20700;DHT22;10511;51.232;9.420;2023-04-01T13:47:28;10.30;99.90
20700;DHT22;10511;51.232;9.420;2023-04-01T13:50:23;10.30;99.90
20700;DHT22;10511;51.232;9.420;2023-04-01T13:53:18;10.40;99.90
20700;DHT22;10511;51.232;9.420;2023-04-01T13:55:57;10.40;99.90
20700;DHT22;10511;51.232;9.420;2023-04-01T13:58:42;10.40;99.90
20700;DHT22;10511;51.232;9.420;2023-04-01T14:01:15;10.40;99.90
20700;DHT22;10511;51.232;9.420;2023-04-01T14:04:10;10.30;99.90
20700;DHT22;10511;51.232;9.420;2023-04-01T14:06:56;10.30;99.90
20700;DHT22;10511;51.232;9.420;2023-04-01T14:09:51;10.40;99.90
20700;DHT22;10511;51.232;9.420;2023-04-01T14:12:30;10.40;99.90
20700;DHT22;10511;51.232;9.420;2023-04-01T14:15:16;10.30;99.90
20700;DHT22;10511;51.232;9.420;2023-04-01T14:18:07;10.30;99.90
20700;DHT22;10511;51.232;9.420;2023-04-01T14:20:48;10.30;99.90
20700;DHT22;10511;51.232;9.420;2023-04-01T14:26:35;10.20;99.90
20700;DHT22;10511;51.232;9.420;2023-04-01T14:29:18;10.20;99.90
20700;DHT22;10511;51.232;9.420;2023-04-01T14:32:00;10.30;99.90
20700;DHT22;10511;51.232;9.420;2023-04-01T14:34:40;10.30;99.90
20700;DHT22;10511;51.232;9.420;2023-04-01T14:37:23;10.30;99.90
20700;DHT22;10511;51.232;9.420;2023-04-01T14:40:14;10.40;99.90
20700;DHT22;10511;51.232;9.420;2023-04-01T14:42:59;10.40;99.90
20700;DHT22;10511;51.232;9.420;2023-04-01T14:46:03;10.40;99.90
20700;DHT22;10511;51.232;9.420;2023-04-01T14:48:34;10.40;99.90
20700;DHT22;10511;51.232;9.420;2023-04-01T14:51:09;10.30;99.90
20700;DHT22;10511;51.232;9.420;2023-04-01T14:53:44;10.30;99.90
20700;DHT22;10511;51.232;9.420;2023-04-01T14:56:39;10.30;99.90
20700;DHT22;10511;51.232;9.420;2023-04-01T14:59:14;10.30;99.90
20700;DHT22;10511;51.232;9.420;2023-04-01T15:01:47;10.20;99.90
20700;DHT22;10511;51.232;9.420;2023-04-01T15:04:43;10.20;99.90
20700;DHT22;10511;51.232;9.420;2023-04-01T15:07:25;10.30;99.90
20700;DHT22;10511;51.232;9.420;2023-04-01T15:09:59;10.40;99.90
20700;DHT22;10511;51.232;9.420;2023-04-01T15:12:32;10.30;99.90
20700;DHT22;10511;51.232;9.420;2023-04-01T15:15:29;10.40;99.90
20700;DHT22;10511;51.232;9.420;2023-04-01T15:18:07;10.50;99.90
20700;DHT22;10511;51.232;9.420;2023-04-01T15:20:53;10.50;99.90
20700;DHT22;10511;51.232;9.420;2023-04-01T15:23:34;10.60;99.90
20700;DHT22;10511;51.232;9.420;2023-04-01T15:26:28;10.60;99.90
20700;DHT22;10511;51.232;9.420;2023-04-01T15:31:54;10.70;99.90
20700;DHT22;10511;51.232;9.420;2023-04-01T15:34:32;10.80;99.90
20700;DHT22;10511;51.232;9.420;2023-04-01T15:37:04;10.70;99.90
20700;DHT22;10511;51.232;9.420;2023-04-01T15:39:54;10.80;99.90
20700;DHT22;10511;51.232;9.420;2023-04-01T15:42:46;10.80;99.90
20700;DHT22;10511;51.232;9.420;2023-04-01T15:45:29;10.70;99.90
20700;DHT22;10511;51.232;9.420;2023-04-01T15:48:13;10.70;99.90
20700;DHT22;10511;51.232;9.420;2023-04-01T15:50:54;10.70;99.90
20700;DHT22;10511;51.232;9.420;2023-04-01T15:53:43;10.60;99.90
20700;DHT22;10511;51.232;9.420;2023-04-01T15:56:26;10.70;99.90
20700;DHT22;10511;51.232;9.420;2023-04-01T15:59:02;10.70;99.90
20700;DHT22;10511;51.232;9.420;2023-04-01T16:01:40;10.80;99.90
20700;DHT22;10511;51.232;9.420;2023-04-01T16:04:33;10.80;99.90
20700;DHT22;10511;51.232;9.420;2023-04-01T16:07:10;10.80;99.90
20700;DHT22;10511;51.232;9.420;2023-04-01T16:12:46;10.80;99.90
20700;DHT22;10511;51.232;9.420;2023-04-01T16:15:23;10.70;99.90
20700;DHT22;10511;51.232;9.420;2023-04-01T16:18:09;10.60;99.90
20700;DHT22;10511;51.232;9.420;2023-04-01T16:20:51;10.60;99.90
20700;DHT22;10511;51.232;9.420;2023-04-01T16:23:22;10.60;99.90
20700;DHT22;10511;51.232;9.420;2023-04-01T16:25:57;10.60;99.90
20700;DHT22;10511;51.232;9.420;2023-04-01T16:28:31;10.60;99.90
20700;DHT22;10511;51.232;9.420;2023-04-01T16:31:03;10.50;99.90
20700;DHT22;10511;51.232;9.420;2023-04-01T16:33:38;10.40;99.90
20700;DHT22;10511;51.232;9.420;2023-04-01T16:36:13;10.30;99.90
20700;DHT22;10511;51.232;9.420;2023-04-01T16:38:49;10.30;99.90
20700;DHT22;10511;51.232;9.420;2023-04-01T16:41:19;10.10;99.90
20700;DHT22;10511;51.232;9.420;2023-04-01T16:43:51;9.90;99.90
20700;DHT22;10511;51.232;9.420;2023-04-01T16:46:32;9.80;99.90
20700;DHT22;10511;51.232;9.420;2023-04-01T16:49:27;9.80;99.90
20700;DHT22;10511;51.232;9.420;2023-04-01T16:52:12;9.80;99.90
20700;DHT22;10511;51.232;9.420;2023-04-01T16:54:44;9.70;99.90
20700;DHT22;10511;51.232;9.420;2023-04-01T16:57:21;9.60;99.90
20700;DHT22;10511;51.232;9.420;2023-04-01T16:59:55;9.70;99.90
20700;DHT22;10511;51.232;9.420;2023-04-01T17:02:26;9.80;99.90
20700;DHT22;10511;51.232;9.420;2023-04-01T17:04:58;9.90;99.90
20700;DHT22;10511;51.232;9.420;2023-04-01T17:07:40;10.00;99.90
20700;DHT22;10511;51.232;9.420;2023-04-01T17:10:25;10.00;99.90
20700;DHT22;10511;51.232;9.420;2023-04-01T17:13:11;10.20;99.90
20700;DHT22;10511;51.232;9.420;2023-04-01T17:15:49;10.20;99.90
20700;DHT22;10511;51.232;9.420;2023-04-01T17:18:24;10.10;99.90
20700;DHT22;10511;51.232;9.420;2023-04-01T17:20:58;10.10;99.90
20700;DHT22;10511;51.232;9.420;2023-04-01T17:23:33;10.20;99.90
20700;DHT22;10511;51.232;9.420;2023-04-01T17:26:17;10.20;99.90
20700;DHT22;10511;51.232;9.420;2023-04-01T17:28:51;10.10;99.90
20700;DHT22;10511;51.232;9.420;2023-04-01T17:31:31;10.00;99.90
20700;DHT22;10511;51.232;9.420;2023-04-01T17:34:30;9.90;99.90
20700;DHT22;10511;51.232;9.420;2023-04-01T17:37:18;9.90;99.90
20700;DHT22;10511;51.232;9.420;2023-04-01T17:42:45;9.80;99.90
20700;DHT22;10511;51.232;9.420;2023-04-01T17:45:21;9.80;99.90
20700;DHT22;10511;51.232;9.420;2023-04-01T17:48:01;9.80;99.90
20700;DHT22;10511;51.232;9.420;2023-04-01T17:50:44;9.80;99.90
20700;DHT22;10511;51.232;9.420;2023-04-01T17:53:23;9.80;99.90
20700;DHT22;10511;51.232;9.420;2023-04-01T17:56:11;9.80;99.90
20700;DHT22;10511;51.232;9.420;2023-04-01T17:58:45;9.80;99.90